createdAt,value
2019-05-20T00:00:09.588Z,6.50
2019-05-20T00:02:38.001Z,4.75
2019-05-20T00:05:06.628Z,3.50
2019-05-20T00:07:35.088Z,3.12
2019-05-20T00:10:07.105Z,3.37
2019-05-20T00:12:35.506Z,4.65
2019-05-20T00:15:06.920Z,3.70
2019-05-20T00:17:35.337Z,4.17
2019-05-20T00:20:06.057Z,4.55
2019-05-20T00:22:34.476Z,5.28
2019-05-20T00:25:03.526Z,3.20
2019-05-20T00:27:31.923Z,3.67
2019-05-20T00:30:00.304Z,4.65
2019-05-20T00:32:40.676Z,6.28
2019-05-20T00:34:58.816Z,6.35
2019-05-20T00:37:27.208Z,4.05
2019-05-20T00:39:55.588Z,4.10
2019-05-20T00:42:23.998Z,3.62
2019-05-20T00:44:52.392Z,5.05
2019-05-20T00:47:20.785Z,2.95
2019-05-20T00:49:49.168Z,3.80
2019-05-20T00:52:17.561Z,5.17
2019-05-20T00:54:45.972Z,3.35
2019-05-20T00:57:14.362Z,4.15
2019-05-20T00:59:42.796Z,3.47
2019-05-20T01:02:11.337Z,3.55
2019-05-20T01:04:39.760Z,3.62
2019-05-20T01:07:08.163Z,2.83
2019-05-20T01:09:36.561Z,5.60
2019-05-20T01:12:05.020Z,3.85
2019-05-20T01:14:33.416Z,3.25
2019-05-20T01:17:02.044Z,4.95
2019-05-20T01:19:30.549Z,3.47
2019-05-20T01:21:58.968Z,5.90
2019-05-20T01:24:27.359Z,5.08
2019-05-20T01:26:55.746Z,4.28
2019-05-20T01:29:24.141Z,3.87
2019-05-20T01:31:52.520Z,3.42
2019-05-20T01:34:20.926Z,4.45
2019-05-20T01:36:49.322Z,6.53
2019-05-20T01:39:17.780Z,4.00
2019-05-20T01:41:46.181Z,4.70
2019-05-20T01:44:14.584Z,4.17
2019-05-20T01:46:42.976Z,3.50
2019-05-20T01:49:11.364Z,8.10
2019-05-20T01:51:39.748Z,5.33
2019-05-20T01:54:08.161Z,9.53
2019-05-20T01:56:36.566Z,4.58
2019-05-20T01:59:05.031Z,4.58
2019-05-20T02:01:33.448Z,4.10
2019-05-20T02:04:01.811Z,6.60
2019-05-20T02:06:30.224Z,5.47
2019-05-20T02:08:58.690Z,4.97
2019-05-20T02:11:27.097Z,5.80
2019-05-20T02:13:57.122Z,4.55
2019-05-20T02:16:27.449Z,6.05
2019-05-20T02:18:55.824Z,5.87
2019-05-20T02:21:24.234Z,5.25
2019-05-20T02:23:52.616Z,4.15
2019-05-20T02:26:21.037Z,6.95
2019-05-20T02:28:49.416Z,7.35
2019-05-20T02:31:17.820Z,5.30
2019-05-20T02:33:51.945Z,4.05
2019-05-20T02:36:16.328Z,9.58
2019-05-20T02:38:44.714Z,5.92
2019-05-20T02:41:13.125Z,5.42
2019-05-20T02:43:41.574Z,6.58
2019-05-20T02:46:10.033Z,8.18
2019-05-20T02:48:38.420Z,6.83
2019-05-20T02:51:06.843Z,6.95
2019-05-20T02:53:35.234Z,5.70
2019-05-20T02:56:03.638Z,5.40
2019-05-20T02:58:32.011Z,11.10
2019-05-20T03:01:00.414Z,5.33
2019-05-20T03:03:29.067Z,6.90
2019-05-20T03:05:57.471Z,8.88
2019-05-20T03:08:25.850Z,6.67
2019-05-20T03:10:54.250Z,8.53
2019-05-20T03:13:22.654Z,6.92
2019-05-20T03:15:51.061Z,6.85
2019-05-20T03:18:19.451Z,8.55
2019-05-20T03:20:47.846Z,6.80
2019-05-20T03:23:16.233Z,7.22
2019-05-20T03:25:44.698Z,6.55
2019-05-20T03:28:13.100Z,5.30
2019-05-20T03:30:41.649Z,7.45
2019-05-20T03:33:10.042Z,7.30
2019-05-20T03:35:38.428Z,6.55
2019-05-20T03:38:06.824Z,8.53
2019-05-20T03:40:35.206Z,6.53
2019-05-20T03:43:03.620Z,5.28
2019-05-20T03:45:32.013Z,9.88
2019-05-20T03:48:00.417Z,4.47
2019-05-20T03:50:28.793Z,5.62
2019-05-20T03:52:57.194Z,5.65
2019-05-20T03:55:25.582Z,6.15
2019-05-20T03:57:53.990Z,7.72
2019-05-20T04:00:37.363Z,6.30
2019-05-20T04:03:05.760Z,8.00
2019-05-20T04:05:34.147Z,6.03
2019-05-20T04:08:02.541Z,5.53
2019-05-20T04:10:30.935Z,8.15
2019-05-20T04:12:59.345Z,5.62
2019-05-20T04:15:27.730Z,6.58
2019-05-20T04:17:56.210Z,10.23
2019-05-20T04:20:24.585Z,6.05
2019-05-20T04:22:52.980Z,11.35
2019-05-20T04:25:21.364Z,11.22
2019-05-20T04:27:49.758Z,9.33
2019-05-20T04:30:19.187Z,9.85
2019-05-20T04:32:47.809Z,5.47
2019-05-20T04:35:22.307Z,6.60
2019-05-20T04:37:46.395Z,7.35
2019-05-20T04:40:14.801Z,6.60
2019-05-20T04:42:43.191Z,6.08
2019-05-20T04:45:13.321Z,5.75
2019-05-20T04:47:41.715Z,6.85
2019-05-20T04:50:10.345Z,5.22
2019-05-20T04:52:38.748Z,6.83
2019-05-20T04:55:07.781Z,8.95
2019-05-20T04:57:36.179Z,7.75
2019-05-20T05:00:07.783Z,6.95
2019-05-20T05:02:36.184Z,5.10
2019-05-20T05:05:06.522Z,6.97
2019-05-20T05:07:34.912Z,5.97
2019-05-20T05:10:04.561Z,6.30
2019-05-20T05:12:32.949Z,5.77
2019-05-20T05:15:01.433Z,6.65
2019-05-20T05:17:29.810Z,13.95
2019-05-20T05:19:58.260Z,4.35
2019-05-20T05:22:26.929Z,6.90
2019-05-20T05:24:55.341Z,5.55
2019-05-20T05:27:23.722Z,9.88
2019-05-20T05:29:52.162Z,8.93
2019-05-20T05:32:22.264Z,8.30
2019-05-20T05:34:50.673Z,10.90
2019-05-20T05:37:19.077Z,9.88
2019-05-20T05:39:47.469Z,7.35
2019-05-20T05:42:15.874Z,6.58
2019-05-20T05:44:44.299Z,11.03
2019-05-20T05:47:12.690Z,10.20
2019-05-20T05:49:41.085Z,8.78
2019-05-20T05:52:09.476Z,9.55
2019-05-20T05:54:37.878Z,8.08
2019-05-20T05:57:06.252Z,7.03
2019-05-20T05:59:34.662Z,7.35
2019-05-20T06:02:03.076Z,9.55
2019-05-20T06:04:31.461Z,10.23
2019-05-20T06:06:59.848Z,10.23
2019-05-20T06:09:28.257Z,9.80
2019-05-20T06:11:56.662Z,9.15
2019-05-20T06:14:25.060Z,12.00
2019-05-20T06:16:53.456Z,11.25
2019-05-20T06:19:21.919Z,10.30
2019-05-20T06:21:50.314Z,9.98
2019-05-20T06:24:18.715Z,10.25
2019-05-20T06:26:47.099Z,15.03
2019-05-20T06:29:15.515Z,18.52
2019-05-20T06:31:43.928Z,22.02
2019-05-20T06:34:12.313Z,27.90
2019-05-20T06:36:42.392Z,28.83
2019-05-20T06:39:11.668Z,23.40
2019-05-20T06:41:40.329Z,17.82
2019-05-20T06:44:08.789Z,12.23
2019-05-20T06:46:37.190Z,15.43
2019-05-20T06:49:05.578Z,13.70
2019-05-20T06:51:33.977Z,14.98
2019-05-20T06:54:02.446Z,12.90
2019-05-20T06:56:30.851Z,13.75
2019-05-20T06:58:59.271Z,17.02
2019-05-20T07:01:27.666Z,15.45
2019-05-20T07:03:56.057Z,16.60
2019-05-20T07:06:24.479Z,14.43
2019-05-20T07:08:52.916Z,17.12
2019-05-20T07:11:21.397Z,17.55
2019-05-20T07:13:49.786Z,11.60
2019-05-20T07:16:18.182Z,11.60
2019-05-20T07:18:46.573Z,12.98
2019-05-20T07:21:14.984Z,17.80
2019-05-20T07:23:43.464Z,17.20
2019-05-20T07:26:11.945Z,16.62
2019-05-20T07:28:40.361Z,16.02
2019-05-20T07:31:08.834Z,21.37
2019-05-20T07:33:37.216Z,15.45
2019-05-20T07:36:09.366Z,17.42
2019-05-20T07:38:35.899Z,12.53
2019-05-20T07:41:04.443Z,19.40
2019-05-20T07:43:32.842Z,23.75
2019-05-20T07:46:02.480Z,21.37
2019-05-20T07:48:32.202Z,20.80
2019-05-20T07:51:02.587Z,23.50
2019-05-20T07:53:31.668Z,22.67
2019-05-20T07:56:08.493Z,22.00
2019-05-20T07:58:39.144Z,22.05
2019-05-20T08:01:07.722Z,23.38
2019-05-20T08:03:38.570Z,21.77
2019-05-20T08:06:06.436Z,27.93
2019-05-20T08:08:34.950Z,28.12
2019-05-20T08:11:03.617Z,31.10
2019-05-20T08:13:32.012Z,28.95
2019-05-20T08:16:00.427Z,28.00
2019-05-20T08:18:28.833Z,26.25
2019-05-20T08:20:57.293Z,26.70
2019-05-20T08:23:25.702Z,25.52
2019-05-20T08:25:54.125Z,31.05
2019-05-20T08:28:22.536Z,26.07
2019-05-20T08:30:50.941Z,26.80
2019-05-20T08:33:19.358Z,27.82
2019-05-20T08:35:47.750Z,25.97
2019-05-20T08:38:16.237Z,25.55
2019-05-20T08:40:48.272Z,29.55
2019-05-20T08:43:14.755Z,29.00
2019-05-20T08:45:43.265Z,30.37
2019-05-20T08:48:11.686Z,29.02
2019-05-20T08:50:40.098Z,32.78
2019-05-20T08:53:09.028Z,34.43
2019-05-20T08:55:37.430Z,28.07
2019-05-20T08:58:05.842Z,28.75
2019-05-20T09:00:34.217Z,30.15
2019-05-20T09:03:02.626Z,31.12
2019-05-20T09:05:31.024Z,27.98
2019-05-20T09:08:03.495Z,27.52
2019-05-20T09:10:29.560Z,30.77
2019-05-20T09:12:57.974Z,28.57
2019-05-20T09:15:26.428Z,26.93
2019-05-20T09:17:54.836Z,33.30
2019-05-20T09:20:24.083Z,29.82
2019-05-20T09:22:52.511Z,24.57
2019-05-20T09:25:24.031Z,30.65
2019-05-20T09:27:52.452Z,28.67
2019-05-20T09:30:20.921Z,27.62
2019-05-20T09:32:49.402Z,29.20
2019-05-20T09:35:17.865Z,31.07
2019-05-20T09:37:46.282Z,27.77
2019-05-20T09:40:17.749Z,30.85
2019-05-20T09:42:46.183Z,27.10
2019-05-20T09:45:14.731Z,32.23
2019-05-20T09:47:43.132Z,32.98
2019-05-20T09:50:11.530Z,30.15
2019-05-20T09:52:39.934Z,25.43
2019-05-20T09:55:08.576Z,33.78
2019-05-20T09:57:36.978Z,33.20
2019-05-20T10:00:07.395Z,28.50
2019-05-20T10:05:06.530Z,35.38
2019-05-20T10:07:34.938Z,35.52
2019-05-20T10:10:04.878Z,36.73
2019-05-20T10:12:45.548Z,36.13
2019-05-20T10:15:04.293Z,39.45
2019-05-20T10:17:32.712Z,37.93
2019-05-20T10:20:01.205Z,36.38
2019-05-20T10:22:29.586Z,36.48
2019-05-20T10:24:58.066Z,37.65
2019-05-20T10:27:26.484Z,42.58
2019-05-20T10:29:54.902Z,41.88
2019-05-20T10:32:23.363Z,32.40
2019-05-20T10:34:51.774Z,34.80
2019-05-20T10:37:20.249Z,36.10
2019-05-20T10:39:48.669Z,42.25
2019-05-20T10:42:17.162Z,36.55
2019-05-20T10:44:45.570Z,39.92
2019-05-20T10:47:14.013Z,34.40
2019-05-20T10:49:42.453Z,44.40
2019-05-20T10:52:10.862Z,35.45
2019-05-20T10:54:39.276Z,39.92
2019-05-20T10:57:07.668Z,37.23
2019-05-20T10:59:36.080Z,38.65
2019-05-20T11:02:04.553Z,30.37
2019-05-20T11:04:35.389Z,38.28
2019-05-20T11:07:03.146Z,35.58
2019-05-20T11:09:31.603Z,33.23
2019-05-20T11:11:59.990Z,36.80
2019-05-20T11:14:28.415Z,35.70
2019-05-20T11:16:56.842Z,29.72
2019-05-20T11:19:25.246Z,29.67
2019-05-20T11:21:53.665Z,34.08
2019-05-20T11:24:22.074Z,31.42
2019-05-20T11:26:50.495Z,31.90
2019-05-20T11:29:19.145Z,28.42
2019-05-20T11:31:47.817Z,27.20
2019-05-20T11:34:16.217Z,29.35
2019-05-20T11:36:44.650Z,36.08
2019-05-20T11:39:13.053Z,28.17
2019-05-20T11:41:52.887Z,34.00
2019-05-20T11:44:12.141Z,30.90
2019-05-20T11:46:40.714Z,30.20
2019-05-20T11:49:09.112Z,33.73
2019-05-20T11:51:37.521Z,36.25
2019-05-20T11:54:05.917Z,33.50
2019-05-20T11:56:34.324Z,33.92
2019-05-20T11:59:02.901Z,31.05
2019-05-20T12:01:31.339Z,35.43
2019-05-20T12:03:59.762Z,36.10
2019-05-20T12:06:28.264Z,38.17
2019-05-20T12:08:56.707Z,35.17
2019-05-20T12:11:25.137Z,35.28
2019-05-20T12:13:53.561Z,38.85
2019-05-20T12:16:21.966Z,36.23
2019-05-20T12:18:50.381Z,35.98
2019-05-20T12:21:18.785Z,32.38
2019-05-20T12:23:47.211Z,37.03
2019-05-20T12:26:15.691Z,35.55
2019-05-20T12:28:44.108Z,37.17
2019-05-20T12:31:12.556Z,35.55
2019-05-20T12:33:40.992Z,34.08
2019-05-20T12:36:09.400Z,31.50
2019-05-20T12:38:37.836Z,33.67
2019-05-20T12:41:06.238Z,35.33
2019-05-20T12:43:34.668Z,30.15
2019-05-20T12:46:03.542Z,31.25
2019-05-20T12:48:34.838Z,30.15
2019-05-20T12:51:03.272Z,31.42
2019-05-20T12:53:31.657Z,26.25
2019-05-20T12:56:00.064Z,26.65
2019-05-20T12:58:28.634Z,26.73
2019-05-20T13:00:59.521Z,28.23
2019-05-20T13:03:27.978Z,25.52
2019-05-20T13:05:58.515Z,25.90
2019-05-20T13:10:55.321Z,24.43
2019-05-20T13:13:23.749Z,25.00
2019-05-20T13:15:52.150Z,26.25
2019-05-20T13:18:20.565Z,24.32
2019-05-20T13:20:48.969Z,27.42
2019-05-20T13:23:17.366Z,27.20
2019-05-20T13:25:45.754Z,22.02
2019-05-20T13:28:15.216Z,23.10
2019-05-20T13:30:43.668Z,23.05
2019-05-20T13:33:12.099Z,22.32
2019-05-20T13:35:40.498Z,19.40
2019-05-20T13:38:08.896Z,19.27
2019-05-20T13:40:46.614Z,17.32
2019-05-20T13:43:07.453Z,18.15
2019-05-20T13:45:35.839Z,18.45
2019-05-20T13:48:04.261Z,17.32
2019-05-20T13:50:32.803Z,16.80
2019-05-20T13:53:01.217Z,14.75
2019-05-20T13:55:29.628Z,18.15
2019-05-20T13:57:58.053Z,16.27
2019-05-20T14:00:26.586Z,15.68
2019-05-20T14:02:55.081Z,16.27
2019-05-20T14:05:23.497Z,14.78
2019-05-20T14:07:51.931Z,18.30
2019-05-20T14:10:20.525Z,14.65
2019-05-20T14:12:48.945Z,14.87
2019-05-20T14:15:18.929Z,14.40
2019-05-20T14:17:47.457Z,17.20
2019-05-20T14:20:16.151Z,15.30
2019-05-20T14:22:44.555Z,11.35
2019-05-20T14:25:13.103Z,15.05
2019-05-20T14:27:41.521Z,17.92
2019-05-20T14:30:10.572Z,17.27
2019-05-20T14:32:38.950Z,14.38
2019-05-20T14:35:07.714Z,14.68
2019-05-20T14:37:36.200Z,14.47
2019-05-20T14:40:06.954Z,14.78
2019-05-20T14:42:35.360Z,16.10
2019-05-20T14:45:04.611Z,18.12
2019-05-20T14:47:33.061Z,17.05
2019-05-20T14:50:01.488Z,18.20
2019-05-20T14:52:29.885Z,15.15
2019-05-20T14:54:58.302Z,17.80
2019-05-20T14:57:26.699Z,15.55
2019-05-20T14:59:55.131Z,15.45
2019-05-20T15:02:23.540Z,18.50
2019-05-20T15:04:52.530Z,14.20
2019-05-20T15:07:30.324Z,17.92
2019-05-20T15:09:51.136Z,18.17
2019-05-20T15:12:19.608Z,18.40
2019-05-20T15:14:48.026Z,16.40
2019-05-20T15:17:16.537Z,15.30
2019-05-20T15:19:44.957Z,15.68
2019-05-20T15:22:13.576Z,14.30
2019-05-20T15:24:42.102Z,16.67
2019-05-20T15:27:10.516Z,17.23
2019-05-20T15:29:38.941Z,17.52
2019-05-20T15:32:07.338Z,23.22
2019-05-20T15:34:35.750Z,19.10
2019-05-20T15:37:04.196Z,20.88
2019-05-20T15:39:32.762Z,22.48
2019-05-20T15:42:01.273Z,21.52
2019-05-20T15:44:29.848Z,18.55
2019-05-20T15:46:58.266Z,19.82
2019-05-20T15:49:28.038Z,18.23
2019-05-20T15:51:56.470Z,21.85
2019-05-20T15:54:25.019Z,21.97
2019-05-20T15:56:55.109Z,31.65
2019-05-20T15:59:23.803Z,33.55
2019-05-20T16:01:52.211Z,32.93
2019-05-20T16:04:20.617Z,32.48
2019-05-20T16:06:49.016Z,33.28
2019-05-20T16:09:17.677Z,33.33
2019-05-20T16:11:46.306Z,31.15
2019-05-20T16:14:14.717Z,30.10
2019-05-20T16:16:43.136Z,35.25
2019-05-20T16:19:11.544Z,33.85
2019-05-20T16:21:39.959Z,35.60
2019-05-20T16:24:08.369Z,34.88
2019-05-20T16:26:36.794Z,28.35
2019-05-20T16:29:05.271Z,36.48
2019-05-20T16:31:33.754Z,36.80
2019-05-20T16:34:02.232Z,31.97
2019-05-20T16:36:30.855Z,38.88
2019-05-20T16:38:59.379Z,36.80
2019-05-20T16:41:27.798Z,37.30
2019-05-20T16:43:57.448Z,36.90
2019-05-20T16:46:29.700Z,38.30
2019-05-20T16:49:01.065Z,38.30
2019-05-20T16:51:30.385Z,37.38
2019-05-20T16:54:03.050Z,40.75
2019-05-20T16:56:32.636Z,43.17
2019-05-20T16:59:01.033Z,40.20
2019-05-20T17:01:44.239Z,38.05
2019-05-20T17:04:00.815Z,42.93
2019-05-20T17:06:30.271Z,40.38
2019-05-20T17:08:58.682Z,40.75
2019-05-20T17:11:31.013Z,39.53
2019-05-20T17:13:59.454Z,44.75
2019-05-20T17:16:27.915Z,38.50
2019-05-20T17:18:56.769Z,45.98
2019-05-20T17:21:25.190Z,44.90
2019-05-20T17:23:53.598Z,48.02
2019-05-20T17:26:22.007Z,43.85
2019-05-20T17:28:50.417Z,47.35
2019-05-20T17:31:18.884Z,46.30
2019-05-20T17:33:47.293Z,41.20
2019-05-20T17:36:15.768Z,41.90
2019-05-20T17:38:44.215Z,38.23
2019-05-20T17:41:12.673Z,44.45
2019-05-20T17:43:41.090Z,45.40
2019-05-20T17:46:09.580Z,41.35
2019-05-20T17:48:37.981Z,40.35
2019-05-20T17:51:06.698Z,41.50
2019-05-20T17:53:36.342Z,41.88
2019-05-20T17:56:09.909Z,45.17
2019-05-20T17:58:38.355Z,45.40
2019-05-20T18:01:15.312Z,52.58
2019-05-20T18:03:36.992Z,46.15
2019-05-20T18:09:37.240Z,46.30
2019-05-20T18:12:05.724Z,43.33
2019-05-20T18:14:34.128Z,45.60
2019-05-20T18:17:02.613Z,45.30
2019-05-20T18:19:31.037Z,42.58
2019-05-20T18:21:59.787Z,42.75
2019-05-20T18:24:28.180Z,43.48
2019-05-20T18:26:56.606Z,44.77
2019-05-20T18:29:25.003Z,42.53
2019-05-20T18:31:53.408Z,45.33
2019-05-20T18:34:21.873Z,33.33
2019-05-20T18:36:50.268Z,39.70
2019-05-20T18:39:18.715Z,45.40
2019-05-20T18:41:47.110Z,45.03
2019-05-20T18:44:15.562Z,43.20
2019-05-20T18:46:44.000Z,46.25
2019-05-20T18:49:12.442Z,49.88
2019-05-20T18:51:40.855Z,46.10
2019-05-20T18:54:10.187Z,46.65
2019-05-20T18:56:38.599Z,46.37
2019-05-20T18:59:08.192Z,44.93
2019-05-20T19:01:50.604Z,38.73
2019-05-20T19:04:07.235Z,44.05
2019-05-20T19:06:35.647Z,42.38
2019-05-20T19:09:05.602Z,43.45
2019-05-20T19:11:34.046Z,43.38
2019-05-20T19:14:02.510Z,45.88
2019-05-20T19:16:30.907Z,48.20
2019-05-20T19:18:59.329Z,41.40
2019-05-20T19:21:27.716Z,38.05
2019-05-20T19:23:56.132Z,46.85
2019-05-20T19:26:25.575Z,45.60
2019-05-20T19:28:54.177Z,47.83
2019-05-20T19:31:22.573Z,45.98
2019-05-20T19:33:50.982Z,44.30
2019-05-20T19:36:19.495Z,45.28
2019-05-20T19:38:47.919Z,50.65
2019-05-20T19:41:16.324Z,39.38
2019-05-20T19:43:44.775Z,47.50
2019-05-20T19:46:13.160Z,44.18
2019-05-20T19:48:41.573Z,49.55
2019-05-20T19:51:09.980Z,50.83
2019-05-20T19:53:39.443Z,51.13
2019-05-20T19:56:10.142Z,48.00
2019-05-20T19:58:41.709Z,46.05
2019-05-20T20:01:12.564Z,41.10
2019-05-20T20:03:42.827Z,48.80
2019-05-20T20:06:11.230Z,44.00
2019-05-20T20:08:43.084Z,41.42
2019-05-20T20:11:12.232Z,43.83
2019-05-20T20:13:40.621Z,42.98
2019-05-20T20:16:09.073Z,46.50
2019-05-20T20:18:37.688Z,47.40
2019-05-20T20:21:06.172Z,46.73
2019-05-20T20:23:36.976Z,41.90
2019-05-20T20:26:05.964Z,44.65
2019-05-20T20:28:34.412Z,46.30
2019-05-20T20:31:02.827Z,51.33
2019-05-20T20:33:31.237Z,44.42
2019-05-20T20:35:59.656Z,55.05
2019-05-20T20:38:28.068Z,55.43
2019-05-20T20:40:56.468Z,57.95
2019-05-20T20:43:24.903Z,58.13
2019-05-20T20:45:53.877Z,49.18
2019-05-20T20:48:22.269Z,53.13
2019-05-20T20:50:50.677Z,61.98
2019-05-20T20:53:19.060Z,63.98
2019-05-20T20:55:47.470Z,61.08
2019-05-20T20:58:15.888Z,48.40
2019-05-20T21:00:44.289Z,58.85
2019-05-20T21:03:12.678Z,53.98
2019-05-20T21:05:41.085Z,57.85
2019-05-20T21:08:09.506Z,58.90
2019-05-20T21:10:37.916Z,60.12
2019-05-20T21:13:06.323Z,58.83
2019-05-20T21:15:34.735Z,59.90
2019-05-20T21:18:03.161Z,64.55
2019-05-20T21:20:31.562Z,63.85
2019-05-20T21:22:59.974Z,57.03
2019-05-20T21:25:28.392Z,66.92
2019-05-20T21:27:56.816Z,65.45
2019-05-20T21:30:25.209Z,65.30
2019-05-20T21:33:08.260Z,68.78
2019-05-20T21:35:23.744Z,61.70
2019-05-20T21:37:52.162Z,64.32
2019-05-20T21:40:20.536Z,63.05
2019-05-20T21:42:48.996Z,67.75
2019-05-20T21:45:17.392Z,71.37
2019-05-20T21:47:45.836Z,64.58
2019-05-20T21:50:14.691Z,66.30
2019-05-20T21:52:43.106Z,68.67
2019-05-20T21:55:13.503Z,68.50
2019-05-20T21:57:41.926Z,59.95
2019-05-20T22:00:12.807Z,71.05
2019-05-20T22:02:41.272Z,64.53
2019-05-20T22:05:09.917Z,70.78
2019-05-20T22:07:38.374Z,60.00
2019-05-20T22:10:07.686Z,65.37
2019-05-20T22:12:36.099Z,64.22
2019-05-20T22:15:05.874Z,61.02
2019-05-20T22:17:34.368Z,69.15
2019-05-20T22:20:02.853Z,58.23
2019-05-20T22:22:32.936Z,69.45
2019-05-20T22:25:01.337Z,65.78
2019-05-20T22:27:29.769Z,58.23
2019-05-20T22:29:58.433Z,62.35
2019-05-20T22:32:26.908Z,63.83
2019-05-20T22:34:55.336Z,58.78
2019-05-20T22:37:23.744Z,61.00
2019-05-20T22:39:52.375Z,60.15
2019-05-20T22:42:20.803Z,64.30
2019-05-20T22:44:49.199Z,62.20
2019-05-20T22:47:17.621Z,53.98
2019-05-20T22:49:46.042Z,62.25
2019-05-20T22:52:14.443Z,65.15
2019-05-20T22:54:42.844Z,67.72
2019-05-20T22:57:11.320Z,51.83
2019-05-20T22:59:39.742Z,61.33
2019-05-20T23:02:08.153Z,53.42
2019-05-20T23:04:36.572Z,56.42
2019-05-20T23:07:05.234Z,56.98
2019-05-20T23:09:33.642Z,58.13
2019-05-20T23:12:02.073Z,55.67
2019-05-20T23:14:30.471Z,56.65
2019-05-20T23:16:58.968Z,52.17
2019-05-20T23:19:27.421Z,52.93
2019-05-20T23:21:55.811Z,64.15
2019-05-20T23:24:24.243Z,58.70
2019-05-20T23:26:52.674Z,49.77
2019-05-20T23:29:21.076Z,54.33
2019-05-20T23:31:49.483Z,62.75
2019-05-20T23:34:17.907Z,52.95
2019-05-20T23:36:46.335Z,52.83
2019-05-20T23:39:14.993Z,57.50
2019-05-20T23:41:43.652Z,56.13
2019-05-20T23:44:12.075Z,56.63
2019-05-20T23:46:40.504Z,51.58
2019-05-20T23:49:08.916Z,42.88
2019-05-20T23:51:37.351Z,39.20
2019-05-20T23:54:05.787Z,53.17
2019-05-20T23:56:34.197Z,61.53
2019-05-20T23:59:02.672Z,54.67
